sensor_id;sensor_type;location;lat;lon;timestamp;temperature;humidity
69084;SHT31;56185;48.526;9.044;2023-10-31T00:01:16;12.16;87.40
69084;SHT31;56185;48.526;9.044;2023-10-31T00:03:41;12.06;87.29
69084;SHT31;56185;48.526;9.044;2023-10-31T00:06:06;12.08;87.61
69084;SHT31;56185;48.526;9.044;2023-10-31T00:08:31;12.02;87.98
69084;SHT31;56185;48.526;9.044;2023-10-31T00:10:57;11.72;88.27
69084;SHT31;56185;48.526;9.044;2023-10-31T00:13:22;11.65;88.47
69084;SHT31;56185;48.526;9.044;2023-10-31T00:15:48;11.72;88.76
69084;SHT31;56185;48.526;9.044;2023-10-31T00:18:14;11.72;88.34
69084;SHT31;56185;48.526;9.044;2023-10-31T00:20:39;11.81;88.94
69084;SHT31;56185;48.526;9.044;2023-10-31T00:23:04;11.82;89.13
69084;SHT31;56185;48.526;9.044;2023-10-31T00:25:29;11.82;88.86
69084;SHT31;56185;48.526;9.044;2023-10-31T00:27:55;11.81;88.28
69084;SHT31;56185;48.526;9.044;2023-10-31T00:30:20;11.82;88.47
69084;SHT31;56185;48.526;9.044;2023-10-31T00:32:45;11.77;88.75
69084;SHT31;56185;48.526;9.044;2023-10-31T00:35:10;11.74;88.36
69084;SHT31;56185;48.526;9.044;2023-10-31T00:37:36;11.68;89.11
69084;SHT31;56185;48.526;9.044;2023-10-31T00:40:03;11.72;88.48
69084;SHT31;56185;48.526;9.044;2023-10-31T00:42:28;11.69;88.74
69084;SHT31;56185;48.526;9.044;2023-10-31T00:44:54;11.77;88.54
69084;SHT31;56185;48.526;9.044;2023-10-31T00:47:19;11.77;87.78
69084;SHT31;56185;48.526;9.044;2023-10-31T00:49:44;11.65;86.88
69084;SHT31;56185;48.526;9.044;2023-10-31T00:52:09;11.62;87.94
69084;SHT31;56185;48.526;9.044;2023-10-31T00:54:35;11.69;88.43
69084;SHT31;56185;48.526;9.044;2023-10-31T00:57:00;11.65;88.03
69084;SHT31;56185;48.526;9.044;2023-10-31T00:59:25;11.71;88.01
69084;SHT31;56185;48.526;9.044;2023-10-31T01:01:50;11.71;87.79
69084;SHT31;56185;48.526;9.044;2023-10-31T01:04:16;11.67;88.27
69084;SHT31;56185;48.526;9.044;2023-10-31T01:06:41;11.77;87.26
69084;SHT31;56185;48.526;9.044;2023-10-31T01:09:07;11.65;88.39
69084;SHT31;56185;48.526;9.044;2023-10-31T01:11:32;11.54;89.03
69084;SHT31;56185;48.526;9.044;2023-10-31T01:13:57;11.38;89.04
69084;SHT31;56185;48.526;9.044;2023-10-31T01:16:23;11.45;88.94
69084;SHT31;56185;48.526;9.044;2023-10-31T01:18:48;11.35;89.59
69084;SHT31;56185;48.526;9.044;2023-10-31T01:21:19;11.31;89.15
69084;SHT31;56185;48.526;9.044;2023-10-31T01:23:44;11.28;88.96
69084;SHT31;56185;48.526;9.044;2023-10-31T01:26:10;11.26;88.83
69084;SHT31;56185;48.526;9.044;2023-10-31T01:28:35;11.34;88.10
69084;SHT31;56185;48.526;9.044;2023-10-31T01:31:00;11.21;87.69
69084;SHT31;56185;48.526;9.044;2023-10-31T01:33:25;11.30;87.61
69084;SHT31;56185;48.526;9.044;2023-10-31T01:35:51;11.16;88.00
69084;SHT31;56185;48.526;9.044;2023-10-31T01:38:16;11.28;88.06
69084;SHT31;56185;48.526;9.044;2023-10-31T01:40:41;11.19;87.73
69084;SHT31;56185;48.526;9.044;2023-10-31T01:43:07;11.31;87.61
69084;SHT31;56185;48.526;9.044;2023-10-31T01:45:32;11.26;87.55
69084;SHT31;56185;48.526;9.044;2023-10-31T01:47:58;11.28;87.66
69084;SHT31;56185;48.526;9.044;2023-10-31T01:50:24;11.21;87.28
69084;SHT31;56185;48.526;9.044;2023-10-31T01:52:49;11.24;87.49
69084;SHT31;56185;48.526;9.044;2023-10-31T01:55:15;11.28;88.22
69084;SHT31;56185;48.526;9.044;2023-10-31T01:57:41;11.37;87.51
69084;SHT31;56185;48.526;9.044;2023-10-31T02:00:10;11.27;88.42
69084;SHT31;56185;48.526;9.044;2023-10-31T02:02:37;11.20;88.50
69084;SHT31;56185;48.526;9.044;2023-10-31T02:05:02;11.35;88.10
69084;SHT31;56185;48.526;9.044;2023-10-31T02:07:28;11.24;88.47
69084;SHT31;56185;48.526;9.044;2023-10-31T02:09:53;11.40;88.14
69084;SHT31;56185;48.526;9.044;2023-10-31T02:12:38;11.28;88.03
69084;SHT31;56185;48.526;9.044;2023-10-31T02:15:03;11.17;89.21
69084;SHT31;56185;48.526;9.044;2023-10-31T02:17:39;11.10;89.03
69084;SHT31;56185;48.526;9.044;2023-10-31T02:20:05;11.17;88.81
69084;SHT31;56185;48.526;9.044;2023-10-31T02:22:30;11.16;88.97
69084;SHT31;56185;48.526;9.044;2023-10-31T02:24:55;11.11;88.87
69084;SHT31;56185;48.526;9.044;2023-10-31T02:27:26;11.10;89.09
69084;SHT31;56185;48.526;9.044;2023-10-31T02:29:51;11.11;89.25
69084;SHT31;56185;48.526;9.044;2023-10-31T02:32:16;11.11;89.40
69084;SHT31;56185;48.526;9.044;2023-10-31T02:34:42;11.07;89.90
69084;SHT31;56185;48.526;9.044;2023-10-31T02:37:13;11.19;88.63
69084;SHT31;56185;48.526;9.044;2023-10-31T02:39:38;11.24;88.54
69084;SHT31;56185;48.526;9.044;2023-10-31T02:42:06;11.17;89.24
69084;SHT31;56185;48.526;9.044;2023-10-31T02:44:31;11.31;88.62
69084;SHT31;56185;48.526;9.044;2023-10-31T02:46:56;11.35;88.71
69084;SHT31;56185;48.526;9.044;2023-10-31T02:49:22;11.35;88.31
69084;SHT31;56185;48.526;9.044;2023-10-31T02:51:47;11.31;88.61
69084;SHT31;56185;48.526;9.044;2023-10-31T02:54:12;11.30;88.78
69084;SHT31;56185;48.526;9.044;2023-10-31T02:56:37;11.37;88.58
69084;SHT31;56185;48.526;9.044;2023-10-31T02:59:03;11.26;88.40
69084;SHT31;56185;48.526;9.044;2023-10-31T03:01:28;11.07;88.34
69084;SHT31;56185;48.526;9.044;2023-10-31T03:03:54;11.11;88.83
69084;SHT31;56185;48.526;9.044;2023-10-31T03:06:24;11.01;88.53
69084;SHT31;56185;48.526;9.044;2023-10-31T03:08:50;10.82;88.80
69084;SHT31;56185;48.526;9.044;2023-10-31T03:11:28;10.75;89.29
69084;SHT31;56185;48.526;9.044;2023-10-31T03:13:53;10.77;89.37
69084;SHT31;56185;48.526;9.044;2023-10-31T03:16:19;10.68;88.73
69084;SHT31;56185;48.526;9.044;2023-10-31T03:18:44;10.75;89.05
69084;SHT31;56185;48.526;9.044;2023-10-31T03:21:09;10.77;89.30
69084;SHT31;56185;48.526;9.044;2023-10-31T03:23:35;10.90;89.16
69084;SHT31;56185;48.526;9.044;2023-10-31T03:26:00;10.80;90.26
69084;SHT31;56185;48.526;9.044;2023-10-31T03:28:25;10.82;89.97
69084;SHT31;56185;48.526;9.044;2023-10-31T03:30:56;10.77;90.59
69084;SHT31;56185;48.526;9.044;2023-10-31T03:33:22;10.89;89.98
69084;SHT31;56185;48.526;9.044;2023-10-31T03:35:48;10.92;89.40
69084;SHT31;56185;48.526;9.044;2023-10-31T03:38:13;10.93;89.19
69084;SHT31;56185;48.526;9.044;2023-10-31T03:40:38;10.86;89.36
69084;SHT31;56185;48.526;9.044;2023-10-31T03:43:03;10.73;89.52
69084;SHT31;56185;48.526;9.044;2023-10-31T03:45:29;10.86;89.70
69084;SHT31;56185;48.526;9.044;2023-10-31T03:47:54;10.86;90.46
69084;SHT31;56185;48.526;9.044;2023-10-31T03:50:19;10.93;89.54
69084;SHT31;56185;48.526;9.044;2023-10-31T03:52:45;10.77;89.47
69084;SHT31;56185;48.526;9.044;2023-10-31T03:55:11;10.90;89.72
69084;SHT31;56185;48.526;9.044;2023-10-31T03:57:36;10.97;89.14
69084;SHT31;56185;48.526;9.044;2023-10-31T04:00:01;10.97;88.86
69084;SHT31;56185;48.526;9.044;2023-10-31T04:02:27;10.96;89.84
69084;SHT31;56185;48.526;9.044;2023-10-31T04:04:52;10.89;89.48
69084;SHT31;56185;48.526;9.044;2023-10-31T04:07:17;10.76;89.94
69084;SHT31;56185;48.526;9.044;2023-10-31T04:09:43;10.79;89.83
69084;SHT31;56185;48.526;9.044;2023-10-31T04:12:08;10.83;89.61
69084;SHT31;56185;48.526;9.044;2023-10-31T04:14:33;10.76;90.17
69084;SHT31;56185;48.526;9.044;2023-10-31T04:16:58;11.00;89.30
69084;SHT31;56185;48.526;9.044;2023-10-31T04:19:26;10.92;89.64
69084;SHT31;56185;48.526;9.044;2023-10-31T04:21:53;10.90;89.83
69084;SHT31;56185;48.526;9.044;2023-10-31T04:24:18;10.90;89.91
69084;SHT31;56185;48.526;9.044;2023-10-31T04:26:43;10.83;89.88
69084;SHT31;56185;48.526;9.044;2023-10-31T04:29:08;10.93;89.62
69084;SHT31;56185;48.526;9.044;2023-10-31T04:31:34;10.90;89.57
69084;SHT31;56185;48.526;9.044;2023-10-31T04:34:01;10.96;88.95
69084;SHT31;56185;48.526;9.044;2023-10-31T04:36:26;10.88;89.33
69084;SHT31;56185;48.526;9.044;2023-10-31T04:38:52;10.84;89.74
69084;SHT31;56185;48.526;9.044;2023-10-31T04:41:17;10.76;89.88
69084;SHT31;56185;48.526;9.044;2023-10-31T04:43:49;10.75;89.75
69084;SHT31;56185;48.526;9.044;2023-10-31T04:46:14;10.80;89.07
69084;SHT31;56185;48.526;9.044;2023-10-31T04:48:39;10.83;88.73
69084;SHT31;56185;48.526;9.044;2023-10-31T04:51:05;10.82;88.56
69084;SHT31;56185;48.526;9.044;2023-10-31T04:53:30;10.84;88.93
69084;SHT31;56185;48.526;9.044;2023-10-31T04:55:55;10.83;89.08
69084;SHT31;56185;48.526;9.044;2023-10-31T04:58:20;10.73;89.45
69084;SHT31;56185;48.526;9.044;2023-10-31T05:00:46;10.73;89.12
69084;SHT31;56185;48.526;9.044;2023-10-31T05:03:12;10.76;88.73
69084;SHT31;56185;48.526;9.044;2023-10-31T05:05:37;10.80;88.94
69084;SHT31;56185;48.526;9.044;2023-10-31T05:08:02;10.80;88.03
69084;SHT31;56185;48.526;9.044;2023-10-31T05:10:28;10.79;88.50
69084;SHT31;56185;48.526;9.044;2023-10-31T05:12:53;10.76;88.71
69084;SHT31;56185;48.526;9.044;2023-10-31T05:15:18;10.80;88.76
69084;SHT31;56185;48.526;9.044;2023-10-31T05:17:43;10.70;88.44
69084;SHT31;56185;48.526;9.044;2023-10-31T05:20:09;10.70;87.64
69084;SHT31;56185;48.526;9.044;2023-10-31T05:22:36;10.53;88.94
69084;SHT31;56185;48.526;9.044;2023-10-31T05:25:01;10.49;88.29
69084;SHT31;56185;48.526;9.044;2023-10-31T05:27:26;10.58;88.25
69084;SHT31;56185;48.526;9.044;2023-10-31T05:29:51;10.62;87.79
69084;SHT31;56185;48.526;9.044;2023-10-31T05:32:17;10.68;87.49
69084;SHT31;56185;48.526;9.044;2023-10-31T05:34:42;10.46;87.76
69084;SHT31;56185;48.526;9.044;2023-10-31T05:37:08;10.51;88.72
69084;SHT31;56185;48.526;9.044;2023-10-31T05:39:33;10.32;88.51
69084;SHT31;56185;48.526;9.044;2023-10-31T05:41:59;10.30;88.33
69084;SHT31;56185;48.526;9.044;2023-10-31T05:44:28;10.27;88.30
69084;SHT31;56185;48.526;9.044;2023-10-31T05:46:53;10.39;87.97
69084;SHT31;56185;48.526;9.044;2023-10-31T05:49:18;10.45;86.94
69084;SHT31;56185;48.526;9.044;2023-10-31T05:51:44;10.32;88.10
69084;SHT31;56185;48.526;9.044;2023-10-31T05:54:09;10.28;88.41
69084;SHT31;56185;48.526;9.044;2023-10-31T05:56:34;10.25;87.89
69084;SHT31;56185;48.526;9.044;2023-10-31T05:59:00;10.25;86.88
69084;SHT31;56185;48.526;9.044;2023-10-31T06:01:25;10.31;86.90
69084;SHT31;56185;48.526;9.044;2023-10-31T06:03:50;10.14;87.17
69084;SHT31;56185;48.526;9.044;2023-10-31T06:06:16;10.12;87.83
69084;SHT31;56185;48.526;9.044;2023-10-31T06:08:41;9.95;87.22
69084;SHT31;56185;48.526;9.044;2023-10-31T06:11:15;9.93;87.77
69084;SHT31;56185;48.526;9.044;2023-10-31T06:13:40;9.89;87.02
69084;SHT31;56185;48.526;9.044;2023-10-31T06:16:06;9.84;87.49
69084;SHT31;56185;48.526;9.044;2023-10-31T06:18:31;9.73;87.67
69084;SHT31;56185;48.526;9.044;2023-10-31T06:20:59;9.86;87.16
69084;SHT31;56185;48.526;9.044;2023-10-31T06:23:25;9.86;87.76
69084;SHT31;56185;48.526;9.044;2023-10-31T06:25:50;9.86;87.97
69084;SHT31;56185;48.526;9.044;2023-10-31T06:28:16;9.74;87.79
69084;SHT31;56185;48.526;9.044;2023-10-31T06:30:42;9.77;88.18
69084;SHT31;56185;48.526;9.044;2023-10-31T06:33:13;9.74;88.67
69084;SHT31;56185;48.526;9.044;2023-10-31T06:35:38;9.90;88.86
69084;SHT31;56185;48.526;9.044;2023-10-31T06:38:03;9.94;89.35
69084;SHT31;56185;48.526;9.044;2023-10-31T06:40:34;10.01;88.90
69084;SHT31;56185;48.526;9.044;2023-10-31T06:42:59;10.00;88.74
69084;SHT31;56185;48.526;9.044;2023-10-31T06:45:24;10.11;88.09
69084;SHT31;56185;48.526;9.044;2023-10-31T06:47:49;10.17;88.43
69084;SHT31;56185;48.526;9.044;2023-10-31T06:50:15;10.30;88.67
69084;SHT31;56185;48.526;9.044;2023-10-31T06:52:40;10.31;88.36
69084;SHT31;56185;48.526;9.044;2023-10-31T06:55:06;10.41;87.39
69084;SHT31;56185;48.526;9.044;2023-10-31T06:57:31;10.48;86.91
69084;SHT31;56185;48.526;9.044;2023-10-31T06:59:56;10.44;86.45
69084;SHT31;56185;48.526;9.044;2023-10-31T07:02:33;10.39;86.44
69084;SHT31;56185;48.526;9.044;2023-10-31T07:04:58;10.45;86.66
69084;SHT31;56185;48.526;9.044;2023-10-31T07:07:23;10.41;86.68
69084;SHT31;56185;48.526;9.044;2023-10-31T07:09:49;10.34;85.86
69084;SHT31;56185;48.526;9.044;2023-10-31T07:12:17;10.42;85.90
69084;SHT31;56185;48.526;9.044;2023-10-31T07:14:45;10.46;86.47
69084;SHT31;56185;48.526;9.044;2023-10-31T07:17:13;10.51;86.73
69084;SHT31;56185;48.526;9.044;2023-10-31T07:19:38;10.41;86.65
69084;SHT31;56185;48.526;9.044;2023-10-31T07:22:04;10.32;86.09
69084;SHT31;56185;48.526;9.044;2023-10-31T07:24:29;10.46;86.30
69084;SHT31;56185;48.526;9.044;2023-10-31T07:26:57;10.42;86.17
69084;SHT31;56185;48.526;9.044;2023-10-31T07:29:22;10.35;85.96
69084;SHT31;56185;48.526;9.044;2023-10-31T07:31:47;10.34;86.03
69084;SHT31;56185;48.526;9.044;2023-10-31T07:34:13;10.39;86.62
69084;SHT31;56185;48.526;9.044;2023-10-31T07:36:38;10.44;86.68
69084;SHT31;56185;48.526;9.044;2023-10-31T07:39:09;10.55;86.41
69084;SHT31;56185;48.526;9.044;2023-10-31T07:41:37;10.51;86.16
69084;SHT31;56185;48.526;9.044;2023-10-31T07:44:02;10.44;85.20
69084;SHT31;56185;48.526;9.044;2023-10-31T07:46:27;10.52;86.17
69084;SHT31;56185;48.526;9.044;2023-10-31T07:48:53;10.49;86.09
69084;SHT31;56185;48.526;9.044;2023-10-31T07:51:21;10.45;86.10
69084;SHT31;56185;48.526;9.044;2023-10-31T07:53:46;10.51;84.86
69084;SHT31;56185;48.526;9.044;2023-10-31T07:56:15;10.58;85.72
69084;SHT31;56185;48.526;9.044;2023-10-31T07:58:41;10.61;84.62
69084;SHT31;56185;48.526;9.044;2023-10-31T08:01:08;10.42;84.99
69084;SHT31;56185;48.526;9.044;2023-10-31T08:03:34;10.68;85.11
69084;SHT31;56185;48.526;9.044;2023-10-31T08:06:02;10.69;83.92
69084;SHT31;56185;48.526;9.044;2023-10-31T08:08:27;10.79;85.33
69084;SHT31;56185;48.526;9.044;2023-10-31T08:10:55;10.84;85.35
69084;SHT31;56185;48.526;9.044;2023-10-31T08:13:21;10.93;84.53
69084;SHT31;56185;48.526;9.044;2023-10-31T08:15:46;11.04;84.13
69084;SHT31;56185;48.526;9.044;2023-10-31T08:18:16;11.04;84.56
69084;SHT31;56185;48.526;9.044;2023-10-31T08:20:41;11.13;83.81
69084;SHT31;56185;48.526;9.044;2023-10-31T08:23:06;11.14;84.54
69084;SHT31;56185;48.526;9.044;2023-10-31T08:25:31;11.13;83.07
69084;SHT31;56185;48.526;9.044;2023-10-31T08:27:57;11.20;84.19
69084;SHT31;56185;48.526;9.044;2023-10-31T08:30:22;11.23;82.73
69084;SHT31;56185;48.526;9.044;2023-10-31T08:33:07;11.10;83.00
69084;SHT31;56185;48.526;9.044;2023-10-31T08:35:33;11.21;82.03
69084;SHT31;56185;48.526;9.044;2023-10-31T08:37:59;11.10;82.02
69084;SHT31;56185;48.526;9.044;2023-10-31T08:40:27;11.21;83.55
69084;SHT31;56185;48.526;9.044;2023-10-31T08:42:52;11.14;82.83
69084;SHT31;56185;48.526;9.044;2023-10-31T08:45:18;11.19;82.96
69084;SHT31;56185;48.526;9.044;2023-10-31T08:47:43;11.16;81.96
69084;SHT31;56185;48.526;9.044;2023-10-31T08:50:08;11.23;82.13
69084;SHT31;56185;48.526;9.044;2023-10-31T08:52:34;11.32;82.84
69084;SHT31;56185;48.526;9.044;2023-10-31T08:55:00;11.21;81.53
69084;SHT31;56185;48.526;9.044;2023-10-31T08:57:28;11.44;81.84
69084;SHT31;56185;48.526;9.044;2023-10-31T08:59:56;11.40;82.48
69084;SHT31;56185;48.526;9.044;2023-10-31T09:02:26;11.59;81.76
69084;SHT31;56185;48.526;9.044;2023-10-31T09:04:51;11.65;81.87
69084;SHT31;56185;48.526;9.044;2023-10-31T09:07:19;11.69;81.10
69084;SHT31;56185;48.526;9.044;2023-10-31T09:09:44;11.89;81.17
69084;SHT31;56185;48.526;9.044;2023-10-31T09:12:09;11.90;80.87
69084;SHT31;56185;48.526;9.044;2023-10-31T09:14:35;11.95;79.55
69084;SHT31;56185;48.526;9.044;2023-10-31T09:17:00;11.96;81.07
69084;SHT31;56185;48.526;9.044;2023-10-31T09:19:25;11.89;80.39
69084;SHT31;56185;48.526;9.044;2023-10-31T09:21:50;11.85;78.92
69084;SHT31;56185;48.526;9.044;2023-10-31T09:24:16;11.85;79.55
69084;SHT31;56185;48.526;9.044;2023-10-31T09:26:42;11.93;79.70
69084;SHT31;56185;48.526;9.044;2023-10-31T09:29:07;11.96;80.09
69084;SHT31;56185;48.526;9.044;2023-10-31T09:31:33;12.05;79.33
69084;SHT31;56185;48.526;9.044;2023-10-31T09:33:58;11.95;78.71
69084;SHT31;56185;48.526;9.044;2023-10-31T09:36:23;11.90;78.75
69084;SHT31;56185;48.526;9.044;2023-10-31T09:38:50;11.96;78.95
69084;SHT31;56185;48.526;9.044;2023-10-31T09:41:15;12.03;78.49
69084;SHT31;56185;48.526;9.044;2023-10-31T09:43:43;12.10;79.95
69084;SHT31;56185;48.526;9.044;2023-10-31T09:46:08;12.18;78.69
69084;SHT31;56185;48.526;9.044;2023-10-31T09:48:37;12.18;77.88
69084;SHT31;56185;48.526;9.044;2023-10-31T09:51:04;12.39;78.34
69084;SHT31;56185;48.526;9.044;2023-10-31T09:53:31;12.34;77.52
69084;SHT31;56185;48.526;9.044;2023-10-31T09:55:57;12.37;76.97
69084;SHT31;56185;48.526;9.044;2023-10-31T09:58:22;12.33;76.98
69084;SHT31;56185;48.526;9.044;2023-10-31T10:00:48;12.29;77.33
69084;SHT31;56185;48.526;9.044;2023-10-31T10:03:13;12.36;77.28
69084;SHT31;56185;48.526;9.044;2023-10-31T10:05:40;12.36;76.15
69084;SHT31;56185;48.526;9.044;2023-10-31T10:08:09;12.36;77.03
69084;SHT31;56185;48.526;9.044;2023-10-31T10:10:35;12.29;77.48
69084;SHT31;56185;48.526;9.044;2023-10-31T10:13:02;12.22;78.08
69084;SHT31;56185;48.526;9.044;2023-10-31T10:15:27;12.25;77.67
69084;SHT31;56185;48.526;9.044;2023-10-31T10:17:52;12.25;78.72
69084;SHT31;56185;48.526;9.044;2023-10-31T10:20:18;12.34;79.57
69084;SHT31;56185;48.526;9.044;2023-10-31T10:22:44;12.41;78.55
69084;SHT31;56185;48.526;9.044;2023-10-31T10:25:13;12.44;78.17
69084;SHT31;56185;48.526;9.044;2023-10-31T10:27:39;12.61;78.15
69084;SHT31;56185;48.526;9.044;2023-10-31T10:30:05;12.58;77.23
69084;SHT31;56185;48.526;9.044;2023-10-31T10:32:30;12.68;78.79
69084;SHT31;56185;48.526;9.044;2023-10-31T10:34:56;12.76;76.48
69084;SHT31;56185;48.526;9.044;2023-10-31T10:37:21;12.80;77.59
69084;SHT31;56185;48.526;9.044;2023-10-31T10:39:47;12.77;78.39
69084;SHT31;56185;48.526;9.044;2023-10-31T10:42:17;12.97;77.33
69084;SHT31;56185;48.526;9.044;2023-10-31T10:44:44;12.99;77.53
69084;SHT31;56185;48.526;9.044;2023-10-31T10:47:13;13.12;76.49
69084;SHT31;56185;48.526;9.044;2023-10-31T10:49:41;13.16;76.74
69084;SHT31;56185;48.526;9.044;2023-10-31T10:52:16;13.16;75.38
69084;SHT31;56185;48.526;9.044;2023-10-31T10:57:35;13.23;76.57
69084;SHT31;56185;48.526;9.044;2023-10-31T11:00:04;13.32;74.99
69084;SHT31;56185;48.526;9.044;2023-10-31T11:02:30;13.23;75.31
69084;SHT31;56185;48.526;9.044;2023-10-31T11:04:57;13.30;76.31
69084;SHT31;56185;48.526;9.044;2023-10-31T11:07:25;13.15;75.23
69084;SHT31;56185;48.526;9.044;2023-10-31T11:09:51;13.14;75.50
69084;SHT31;56185;48.526;9.044;2023-10-31T11:12:18;13.26;76.33
69084;SHT31;56185;48.526;9.044;2023-10-31T11:14:44;13.26;75.55
69084;SHT31;56185;48.526;9.044;2023-10-31T11:17:28;13.35;74.95
69084;SHT31;56185;48.526;9.044;2023-10-31T11:19:55;13.40;74.24
69084;SHT31;56185;48.526;9.044;2023-10-31T11:22:21;13.39;74.37
69084;SHT31;56185;48.526;9.044;2023-10-31T11:24:48;13.53;73.78
69084;SHT31;56185;48.526;9.044;2023-10-31T11:27:18;13.65;74.95
69084;SHT31;56185;48.526;9.044;2023-10-31T11:29:43;13.67;74.33
69084;SHT31;56185;48.526;9.044;2023-10-31T11:32:10;13.53;73.23
69084;SHT31;56185;48.526;9.044;2023-10-31T11:34:38;13.55;74.14
69084;SHT31;56185;48.526;9.044;2023-10-31T11:37:23;13.39;73.80
69084;SHT31;56185;48.526;9.044;2023-10-31T11:40:19;13.46;74.52
69084;SHT31;56185;48.526;9.044;2023-10-31T11:42:56;13.30;74.31
69084;SHT31;56185;48.526;9.044;2023-10-31T11:45:35;13.28;74.20
69084;SHT31;56185;48.526;9.044;2023-10-31T11:48:00;13.26;75.09
69084;SHT31;56185;48.526;9.044;2023-10-31T11:50:29;13.28;74.15
69084;SHT31;56185;48.526;9.044;2023-10-31T11:53:11;13.42;74.34
69084;SHT31;56185;48.526;9.044;2023-10-31T11:55:40;13.49;74.54
69084;SHT31;56185;48.526;9.044;2023-10-31T11:58:21;13.66;73.23
69084;SHT31;56185;48.526;9.044;2023-10-31T12:00:51;13.78;72.99
69084;SHT31;56185;48.526;9.044;2023-10-31T12:03:18;13.78;72.13
69084;SHT31;56185;48.526;9.044;2023-10-31T12:05:53;13.88;72.09
69084;SHT31;56185;48.526;9.044;2023-10-31T12:08:39;14.05;71.95
69084;SHT31;56185;48.526;9.044;2023-10-31T12:13:38;14.07;72.10
69084;SHT31;56185;48.526;9.044;2023-10-31T12:16:08;13.88;71.42
69084;SHT31;56185;48.526;9.044;2023-10-31T12:18:34;13.80;70.84
69084;SHT31;56185;48.526;9.044;2023-10-31T12:20:59;13.76;71.47
69084;SHT31;56185;48.526;9.044;2023-10-31T12:23:25;13.78;71.83
69084;SHT31;56185;48.526;9.044;2023-10-31T12:25:51;13.81;72.62
69084;SHT31;56185;48.526;9.044;2023-10-31T12:28:23;13.71;72.01
69084;SHT31;56185;48.526;9.044;2023-10-31T12:30:53;13.74;72.11
69084;SHT31;56185;48.526;9.044;2023-10-31T12:33:18;13.78;72.54
69084;SHT31;56185;48.526;9.044;2023-10-31T12:35:44;13.63;71.59
69084;SHT31;56185;48.526;9.044;2023-10-31T12:38:10;13.74;72.44
69084;SHT31;56185;48.526;9.044;2023-10-31T12:40:37;13.77;72.00
69084;SHT31;56185;48.526;9.044;2023-10-31T12:43:05;13.71;71.06
69084;SHT31;56185;48.526;9.044;2023-10-31T12:45:31;13.69;70.37
69084;SHT31;56185;48.526;9.044;2023-10-31T12:48:07;13.65;71.39
69084;SHT31;56185;48.526;9.044;2023-10-31T12:50:34;13.63;69.57
69084;SHT31;56185;48.526;9.044;2023-10-31T12:53:00;13.57;71.29
69084;SHT31;56185;48.526;9.044;2023-10-31T12:55:29;13.66;70.59
69084;SHT31;56185;48.526;9.044;2023-10-31T12:57:56;13.59;71.01
69084;SHT31;56185;48.526;9.044;2023-10-31T13:00:22;13.60;70.53
69084;SHT31;56185;48.526;9.044;2023-10-31T13:02:48;13.73;70.00
69084;SHT31;56185;48.526;9.044;2023-10-31T13:05:15;13.80;69.16
69084;SHT31;56185;48.526;9.044;2023-10-31T13:07:48;13.88;69.35
69084;SHT31;56185;48.526;9.044;2023-10-31T13:10:18;13.84;70.28
69084;SHT31;56185;48.526;9.044;2023-10-31T13:12:47;14.05;70.19
69084;SHT31;56185;48.526;9.044;2023-10-31T13:15:15;14.15;68.46
69084;SHT31;56185;48.526;9.044;2023-10-31T13:17:41;14.15;68.56
69084;SHT31;56185;48.526;9.044;2023-10-31T13:20:07;14.10;68.37
69084;SHT31;56185;48.526;9.044;2023-10-31T13:22:33;14.03;69.61
69084;SHT31;56185;48.526;9.044;2023-10-31T13:24:58;13.86;69.32
69084;SHT31;56185;48.526;9.044;2023-10-31T13:27:23;13.91;69.07
69084;SHT31;56185;48.526;9.044;2023-10-31T13:29:51;13.86;69.15
69084;SHT31;56185;48.526;9.044;2023-10-31T13:32:16;13.59;69.67
69084;SHT31;56185;48.526;9.044;2023-10-31T13:34:42;13.78;70.76
69084;SHT31;56185;48.526;9.044;2023-10-31T13:37:07;13.70;70.54
69084;SHT31;56185;48.526;9.044;2023-10-31T13:39:32;13.73;70.04
69084;SHT31;56185;48.526;9.044;2023-10-31T13:41:57;13.83;70.23
69084;SHT31;56185;48.526;9.044;2023-10-31T13:44:23;13.87;69.25
69084;SHT31;56185;48.526;9.044;2023-10-31T13:46:48;13.74;69.23
69084;SHT31;56185;48.526;9.044;2023-10-31T13:49:13;13.69;70.05
69084;SHT31;56185;48.526;9.044;2023-10-31T13:51:38;13.66;69.85
69084;SHT31;56185;48.526;9.044;2023-10-31T13:54:04;13.60;70.68
69084;SHT31;56185;48.526;9.044;2023-10-31T13:56:29;13.45;71.23
69084;SHT31;56185;48.526;9.044;2023-10-31T13:58:57;13.62;72.31
69084;SHT31;56185;48.526;9.044;2023-10-31T14:01:22;13.67;71.76
69084;SHT31;56185;48.526;9.044;2023-10-31T14:03:47;13.57;70.95
69084;SHT31;56185;48.526;9.044;2023-10-31T14:06:12;13.57;71.89
69084;SHT31;56185;48.526;9.044;2023-10-31T14:08:38;13.46;71.64
69084;SHT31;56185;48.526;9.044;2023-10-31T14:11:03;13.36;72.08
69084;SHT31;56185;48.526;9.044;2023-10-31T14:13:28;13.43;72.46
69084;SHT31;56185;48.526;9.044;2023-10-31T14:15:53;13.52;72.91
69084;SHT31;56185;48.526;9.044;2023-10-31T14:18:19;13.63;72.27
69084;SHT31;56185;48.526;9.044;2023-10-31T14:20:44;13.59;72.63
69084;SHT31;56185;48.526;9.044;2023-10-31T14:23:09;13.59;73.01
69084;SHT31;56185;48.526;9.044;2023-10-31T14:25:34;13.62;73.22
69084;SHT31;56185;48.526;9.044;2023-10-31T14:27:59;13.57;72.77
69084;SHT31;56185;48.526;9.044;2023-10-31T14:30:25;13.56;72.74
69084;SHT31;56185;48.526;9.044;2023-10-31T14:32:50;13.57;72.26
69084;SHT31;56185;48.526;9.044;2023-10-31T14:35:15;13.66;72.47
69084;SHT31;56185;48.526;9.044;2023-10-31T14:37:41;13.59;72.44
69084;SHT31;56185;48.526;9.044;2023-10-31T14:40:06;13.59;71.97
69084;SHT31;56185;48.526;9.044;2023-10-31T14:42:32;13.42;73.42
69084;SHT31;56185;48.526;9.044;2023-10-31T14:44:57;13.36;73.00
69084;SHT31;56185;48.526;9.044;2023-10-31T14:47:22;13.34;72.61
69084;SHT31;56185;48.526;9.044;2023-10-31T14:49:48;13.26;73.26
69084;SHT31;56185;48.526;9.044;2023-10-31T14:52:19;13.07;74.16
69084;SHT31;56185;48.526;9.044;2023-10-31T14:54:44;12.99;74.42
69084;SHT31;56185;48.526;9.044;2023-10-31T14:57:09;13.11;75.32
69084;SHT31;56185;48.526;9.044;2023-10-31T14:59:34;13.05;75.41
69084;SHT31;56185;48.526;9.044;2023-10-31T15:02:00;12.99;75.50
69084;SHT31;56185;48.526;9.044;2023-10-31T15:04:28;12.94;75.87
69084;SHT31;56185;48.526;9.044;2023-10-31T15:06:54;13.02;75.84
69084;SHT31;56185;48.526;9.044;2023-10-31T15:09:20;13.01;75.84
69084;SHT31;56185;48.526;9.044;2023-10-31T15:11:52;12.89;75.74
69084;SHT31;56185;48.526;9.044;2023-10-31T15:14:22;12.99;75.84
69084;SHT31;56185;48.526;9.044;2023-10-31T15:16:48;12.97;76.29
69084;SHT31;56185;48.526;9.044;2023-10-31T15:19:15;12.97;76.09
69084;SHT31;56185;48.526;9.044;2023-10-31T15:21:43;12.91;75.80
69084;SHT31;56185;48.526;9.044;2023-10-31T15:24:08;13.02;78.25
69084;SHT31;56185;48.526;9.044;2023-10-31T15:26:34;12.80;80.11
69084;SHT31;56185;48.526;9.044;2023-10-31T15:28:59;12.77;80.63
69084;SHT31;56185;48.526;9.044;2023-10-31T15:31:24;12.74;82.31
69084;SHT31;56185;48.526;9.044;2023-10-31T15:34:04;12.61;82.41